Time;durP1;ratioP1;P1;durP2;ratioP2;P2;SDS_P1;SDS_P2;PMS_P1;PMS_P2;Temp;Humidity;BMP_temperature;BMP_pressure;BME280_temperature;BME280_humidity;BME280_pressure;Samples;Min_cycle;Max_cycle;Signal;HPM_P1;HPM_P2
2022/10/20 00:01:52;;;;;;;7.70;7.00;;;;;;;16.02;54.90;99721.00;5073548;28;20606;-67
2022/10/20 00:04:19;;;;;;;8.37;7.60;;;;;;;16.15;54.77;99730.72;5073324;28;20195;-67
2022/10/20 00:06:46;;;;;;;8.40;7.47;;;;;;;16.11;55.12;99734.91;5073362;28;20196;-67
2022/10/20 00:09:14;;;;;;;8.93;7.30;;;;;;;16.17;55.33;99728.66;5073517;28;20191;-67
2022/10/20 00:11:40;;;;;;;7.77;7.17;;;;;;;16.11;55.80;99734.91;5073713;28;20227;-67
2022/10/20 00:14:07;;;;;;;9.00;8.17;;;;;;;16.13;56.24;99732.81;5073190;28;20245;-67
2022/10/20 00:16:36;;;;;;;10.40;7.73;;;;;;;16.11;56.73;99732.22;5073212;28;20257;-67
2022/10/20 00:19:03;;;;;;;9.17;7.67;;;;;;;16.16;56.65;99727.81;5073248;28;20219;-67
2022/10/20 00:21:32;;;;;;;8.77;7.90;;;;;;;16.15;56.69;99723.50;5072824;28;20192;-67
2022/10/20 00:24:00;;;;;;;9.03;8.20;;;;;;;16.08;57.56;99719.28;5072711;28;20188;-67
2022/10/20 00:26:29;;;;;;;10.73;7.50;;;;;;;16.04;57.72;99718.09;5072524;28;20274;-67
2022/10/20 00:28:57;;;;;;;12.20;8.00;;;;;;;16.08;58.23;99714.72;5064262;28;20250;-67
2022/10/20 00:31:25;;;;;;;9.10;8.30;;;;;;;16.14;58.71;99723.72;5052662;28;20576;-67
2022/10/20 00:33:53;;;;;;;10.57;8.37;;;;;;;16.23;58.71;99717.84;5061700;28;20238;-67
2022/10/20 00:36:21;;;;;;;12.33;8.93;;;;;;;16.23;58.92;99706.28;5072185;28;20432;-67
2022/10/20 00:38:48;;;;;;;9.70;8.80;;;;;;;16.27;59.30;99712.81;5072342;28;20764;-67
2022/10/20 00:41:16;;;;;;;11.47;8.60;;;;;;;16.26;58.98;99714.72;5072752;28;20623;-67
2022/10/20 00:43:47;;;;;;;11.53;8.70;;;;;;;16.39;58.86;99711.00;5073507;28;20241;-67
2022/10/20 00:46:17;;;;;;;9.43;8.67;;;;;;;16.42;59.26;99707.91;5072579;28;20188;-67
2022/10/20 00:48:49;;;;;;;9.70;8.43;;;;;;;16.44;59.34;99708.50;5073181;28;20245;-67
2022/10/20 00:51:19;;;;;;;10.80;8.30;;;;;;;16.44;59.47;99695.06;5072244;28;20562;-67
2022/10/20 00:53:48;;;;;;;9.90;9.10;;;;;;;16.42;59.76;99702.53;5072293;28;20575;-67
2022/10/20 00:56:15;;;;;;;11.77;9.10;;;;;;;16.54;59.74;99695.34;5071978;28;20191;-67
2022/10/20 00:58:43;;;;;;;10.87;9.80;;;;;;;16.54;59.74;99698.84;5072173;28;20277;-67
2022/10/20 01:01:13;;;;;;;12.23;8.90;;;;;;;16.61;59.82;99699.56;5072036;28;20741;-67
2022/10/20 01:03:44;;;;;;;9.33;8.47;;;;;;;16.63;60.04;99693.97;5072359;28;20198;-67
2022/10/20 01:06:12;;;;;;;10.43;9.23;;;;;;;16.64;60.06;99700.97;5072073;28;20184;-67
2022/10/20 01:08:39;;;;;;;12.20;9.40;;;;;;;16.67;59.80;99701.34;5072384;28;20237;-67
2022/10/20 01:11:16;;;;;;;10.90;9.30;;;;;;;16.69;59.87;99706.47;5072161;28;20227;-67
2022/10/20 01:13:55;;;;;;;10.60;9.60;;;;;;;16.60;60.04;99686.38;5073169;28;20607;-66
2022/10/20 01:16:30;;;;;;;14.17;10.00;;;;;;;16.65;60.30;99692.69;5071999;28;20563;-67
2022/10/20 01:19:02;;;;;;;10.57;9.67;;;;;;;16.63;60.62;99691.28;5072529;28;20264;-67
2022/10/20 01:21:47;;;;;;;11.10;10.00;;;;;;;16.63;61.99;99692.13;5072237;28;20667;-67
2022/10/20 01:24:41;;;;;;;12.97;10.40;;;;;;;16.70;62.37;99703.53;5071900;28;20184;-67
2022/10/20 01:27:31;;;;;;;12.17;10.33;;;;;;;16.79;62.31;99704.03;5039344;28;20194;-66
2022/10/20 01:30:04;;;;;;;17.10;11.17;;;;;;;16.74;62.87;99710.09;5069033;28;20188;-67
2022/10/20 01:32:49;;;;;;;12.50;11.20;;;;;;;16.86;62.28;99707.44;5072738;28;20180;-67
2022/10/20 01:35:26;;;;;;;20.93;11.47;;;;;;;16.82;62.81;99717.81;5052223;28;20187;-67
2022/10/20 01:38:01;;;;;;;11.37;10.20;;;;;;;16.87;62.40;99711.75;5051788;28;20751;-67
2022/10/20 01:40:32;;;;;;;14.20;11.17;;;;;;;16.84;62.84;99715.72;5051631;28;20771;-67
2022/10/20 01:43:04;;;;;;;11.77;10.37;;;;;;;16.77;63.04;99709.63;5052540;28;20185;-66
2022/10/20 01:45:33;;;;;;;13.07;11.07;;;;;;;16.72;63.21;99716.72;5051620;28;20724;-67
2022/10/20 01:48:05;;;;;;;13.77;12.30;;;;;;;16.84;63.55;99721.09;5051963;28;20197;-67
2022/10/20 01:50:33;;;;;;;13.97;11.30;;;;;;;16.77;63.80;99709.63;5051610;28;20242;-67
2022/10/20 01:53:01;;;;;;;12.53;11.23;;;;;;;16.79;63.76;99717.47;5051968;28;20196;-67
2022/10/20 01:55:28;;;;;;;14.03;12.20;;;;;;;16.73;64.03;99713.00;5051796;28;20266;-67
2022/10/20 01:58:14;;;;;;;15.37;12.60;;;;;;;16.70;64.49;99718.84;5051569;28;20199;-67
2022/10/20 02:00:42;;;;;;;18.67;13.10;;;;;;;16.71;64.72;99720.47;5051458;28;20229;-67
2022/10/20 02:03:25;;;;;;;18.50;12.17;;;;;;;16.61;65.10;99728.28;5051717;28;20618;-68
2022/10/20 02:06:07;;;;;;;14.53;12.53;;;;;;;16.55;66.01;99718.44;5051488;28;20239;-67
2022/10/20 02:08:42;;;;;;;16.90;13.40;;;;;;;16.51;66.13;99722.63;5053207;28;20730;-66
2022/10/20 02:11:15;;;;;;;15.33;13.73;;;;;;;16.41;66.72;99725.84;5055421;28;20230;-67
2022/10/20 02:13:44;;;;;;;14.80;13.33;;;;;;;16.43;67.02;99722.94;5055674;28;20193;-67
2022/10/20 02:16:16;;;;;;;15.60;13.80;;;;;;;16.34;67.12;99725.13;5055143;28;20637;-67
2022/10/20 02:18:46;;;;;;;15.63;13.83;;;;;;;16.43;67.02;99734.50;5056328;28;20270;-67
2022/10/20 02:21:13;;;;;;;14.93;13.33;;;;;;;16.51;66.70;99730.66;5055616;28;20197;-68
2022/10/20 02:23:44;;;;;;;15.00;13.70;;;;;;;16.41;66.90;99738.47;5055443;28;20189;-68
2022/10/20 02:26:15;;;;;;;21.07;13.70;;;;;;;16.34;67.21;99746.56;5069456;28;20191;-68
2022/10/20 02:28:48;;;;;;;18.73;13.23;;;;;;;16.33;66.85;99749.47;5075228;28;20192;-68
2022/10/20 02:31:15;;;;;;;15.10;13.80;;;;;;;16.29;66.95;99746.41;5074948;28;20680;-67
2022/10/20 02:33:45;;;;;;;13.90;12.80;;;;;;;16.21;67.29;99740.56;5074792;28;20573;-67
2022/10/20 02:36:16;;;;;;;16.20;14.63;;;;;;;16.18;67.51;99746.34;5074702;28;20196;-67
2022/10/20 02:38:43;;;;;;;20.97;12.70;;;;;;;16.16;67.51;99748.47;5074817;28;20223;-67
2022/10/20 02:41:11;;;;;;;15.10;13.63;;;;;;;16.12;67.82;99749.94;5074972;28;20254;-67
2022/10/20 02:43:37;;;;;;;14.90;13.23;;;;;;;16.14;68.00;99750.53;5075305;28;20192;-67
2022/10/20 02:46:06;;;;;;;15.60;13.33;;;;;;;16.12;68.18;99752.63;5074913;28;20188;-67
2022/10/20 02:48:32;;;;;;;15.77;14.10;;;;;;;16.12;68.76;99758.78;5075806;28;20192;-67
2022/10/20 02:50:59;;;;;;;19.80;13.77;;;;;;;16.21;68.25;99756.63;5074839;28;20192;-67
2022/10/20 02:53:26;;;;;;;15.60;14.00;;;;;;;16.12;68.47;99766.03;5074538;28;20196;-67
2022/10/20 02:55:52;;;;;;;21.67;14.30;;;;;;;16.07;68.69;99760.50;5074784;28;20654;-68
2022/10/20 02:58:19;;;;;;;17.23;15.17;;;;;;;16.08;69.00;99762.16;5074706;28;20623;-68
2022/10/20 03:00:46;;;;;;;22.67;14.73;;;;;;;16.14;68.92;99762.09;5074824;28;20216;-68
2022/10/20 03:03:14;;;;;;;16.03;14.20;;;;;;;16.19;68.62;99769.44;5074349;28;20222;-68
2022/10/20 03:05:43;;;;;;;15.87;14.27;;;;;;;16.12;69.03;99774.88;5074574;28;20652;-68
2022/10/20 03:08:10;;;;;;;18.40;14.87;;;;;;;16.11;69.29;99780.44;5074301;28;20227;-68
2022/10/20 03:10:37;;;;;;;16.43;14.63;;;;;;;16.15;69.04;99784.31;5074078;28;20691;-68
2022/10/20 03:13:05;;;;;;;16.17;14.77;;;;;;;16.06;69.25;99791.88;5075107;28;20192;-68
2022/10/20 03:15:31;;;;;;;16.10;14.47;;;;;;;16.10;69.36;99786.88;5074171;28;20261;-68
2022/10/20 03:17:58;;;;;;;16.20;14.60;;;;;;;16.13;69.11;99791.78;5073963;28;20571;-67
2022/10/20 03:20:26;;;;;;;16.23;14.70;;;;;;;16.12;69.18;99799.00;5073497;28;20227;-68
2022/10/20 03:22:53;;;;;;;16.60;14.83;;;;;;;16.01;69.41;99778.31;5074311;28;20265;-68
2022/10/20 03:25:20;;;;;;;20.13;15.93;;;;;;;16.07;69.83;99788.13;5073931;28;20184;-68
2022/10/20 03:27:46;;;;;;;17.33;14.57;;;;;;;16.07;70.11;99787.31;5073787;28;20193;-68
2022/10/20 03:30:13;;;;;;;18.07;16.03;;;;;;;16.11;69.86;99801.88;5054930;28;20261;-68
2022/10/20 03:32:40;;;;;;;18.43;16.03;;;;;;;16.11;70.34;99804.56;5054132;28;20193;-68
2022/10/20 03:35:07;;;;;;;17.07;15.33;;;;;;;16.10;70.03;99809.13;5073112;28;20192;-68
2022/10/20 03:37:35;;;;;;;17.50;15.70;;;;;;;16.01;70.94;99804.28;5073936;28;20192;-67
2022/10/20 03:40:02;;;;;;;16.37;14.47;;;;;;;15.94;70.79;99815.06;5073571;28;20645;-67
2022/10/20 03:42:29;;;;;;;16.67;14.97;;;;;;;15.98;70.37;99814.41;5074147;28;20191;-67
2022/10/20 03:44:55;;;;;;;20.37;15.53;;;;;;;15.97;70.40;99824.53;5073897;28;20196;-68
2022/10/20 03:47:22;;;;;;;16.83;15.23;;;;;;;16.01;70.43;99825.72;5073426;28;20188;-68
2022/10/20 03:49:49;;;;;;;18.20;15.17;;;;;;;16.00;70.32;99824.09;5073769;28;20200;-68
2022/10/20 03:52:16;;;;;;;20.37;14.43;;;;;;;16.02;70.26;99819.31;5073340;28;20196;-68
2022/10/20 03:54:44;;;;;;;16.03;14.63;;;;;;;15.97;70.08;99824.53;5073407;28;20660;-67
2022/10/20 03:57:10;;;;;;;16.03;14.43;;;;;;;15.93;70.00;99828.69;5073534;28;20192;-68
2022/10/20 03:59:37;;;;;;;18.13;14.50;;;;;;;15.85;70.46;99827.94;5073603;28;20269;-68
2022/10/20 04:02:04;;;;;;;16.10;14.47;;;;;;;15.88;70.53;99827.50;5073381;28;20249;-67
2022/10/20 04:04:30;;;;;;;16.93;15.33;;;;;;;15.83;70.77;99838.06;5073140;28;20196;-68
2022/10/20 04:06:57;;;;;;;16.10;14.27;;;;;;;15.81;70.65;99831.28;5073017;28;20732;-68
2022/10/20 04:09:24;;;;;;;15.67;14.03;;;;;;;15.93;69.92;99839.41;5073619;28;20623;-68
2022/10/20 04:11:52;;;;;;;15.70;14.13;;;;;;;15.88;70.09;99855.34;5073426;28;20228;-68
2022/10/20 04:14:18;;;;;;;19.70;14.17;;;;;;;15.82;70.50;99838.28;5072985;28;20192;-67
2022/10/20 04:16:45;;;;;;;16.60;15.00;;;;;;;15.82;70.16;99833.72;5072767;28;20556;-67
2022/10/20 04:19:12;;;;;;;14.90;13.40;;;;;;;15.87;69.95;99835.75;5073663;28;20196;-67
2022/10/20 04:21:38;;;;;;;15.83;13.30;;;;;;;15.90;69.55;99841.47;5073307;28;20277;-67
2022/10/20 04:24:06;;;;;;;15.40;12.97;;;;;;;15.88;69.82;99842.75;5073394;28;20257;-67
2022/10/20 04:26:32;;;;;;;14.73;13.27;;;;;;;15.85;69.74;99838.66;5072857;28;20192;-68
2022/10/20 04:29:01;;;;;;;16.00;12.63;;;;;;;15.86;69.52;99834.91;5072944;28;20188;-68
2022/10/20 04:31:28;;;;;;;20.63;13.40;;;;;;;15.85;69.03;99841.31;5071829;28;20188;-68
2022/10/20 04:33:54;;;;;;;15.53;14.13;;;;;;;15.82;69.30;99847.13;5072693;28;20629;-68
2022/10/20 04:36:21;;;;;;;15.53;13.70;;;;;;;15.77;69.18;99852.31;5072677;28;20625;-67
2022/10/20 04:38:48;;;;;;;16.70;12.80;;;;;;;15.66;69.38;99855.75;5072715;28;20253;-68
2022/10/20 04:41:14;;;;;;;14.03;12.73;;;;;;;15.69;68.94;99859.84;5072686;28;20277;-68
2022/10/20 04:43:41;;;;;;;14.43;12.67;;;;;;;15.76;68.34;99866.75;5072458;28;20200;-67
2022/10/20 04:46:10;;;;;;;12.70;11.43;;;;;;;15.69;68.28;99871.34;5072362;28;20188;-67
2022/10/20 04:48:38;;;;;;;13.17;11.97;;;;;;;15.78;67.96;99867.38;5072486;28;20249;-68
2022/10/20 04:51:07;;;;;;;15.00;12.30;;;;;;;15.75;67.79;99867.81;5072284;28;20751;-68
2022/10/20 04:53:34;;;;;;;16.83;12.57;;;;;;;15.58;68.38;99861.38;5072076;28;20207;-68
2022/10/20 04:56:01;;;;;;;12.27;10.97;;;;;;;15.68;67.79;99879.59;5072080;28;20195;-68
2022/10/20 04:58:28;;;;;;;21.37;12.20;;;;;;;15.63;67.66;99882.13;5072086;28;20664;-68
2022/10/20 05:00:59;;;;;;;13.53;11.77;;;;;;;15.70;67.59;99889.09;5072588;28;20220;-68
2022/10/20 05:03:28;;;;;;;12.40;10.77;;;;;;;15.75;67.48;99891.09;5072084;28;20246;-68
2022/10/20 05:05:54;;;;;;;12.47;11.47;;;;;;;15.78;67.27;99899.53;5072690;28;20245;-67
2022/10/20 05:08:21;;;;;;;12.30;11.00;;;;;;;15.73;67.47;99904.69;5071967;28;20253;-67
2022/10/20 05:10:47;;;;;;;12.97;11.00;;;;;;;15.88;66.71;99906.25;5072212;28;20300;-68
2022/10/20 05:13:14;;;;;;;11.97;10.87;;;;;;;16.03;66.10;99904.84;5071885;28;20559;-68
2022/10/20 05:15:41;;;;;;;11.13;10.30;;;;;;;16.20;65.43;99905.91;5071903;28;20733;-68
2022/10/20 05:18:07;;;;;;;13.23;11.13;;;;;;;16.41;65.13;99918.09;5072217;28;20254;-68
2022/10/20 05:20:38;;;;;;;12.47;11.27;;;;;;;16.46;64.89;99927.09;5072091;28;20292;-68
2022/10/20 05:23:05;;;;;;;13.07;11.00;;;;;;;16.63;64.12;99932.69;5072578;28;20192;-67
2022/10/20 05:25:31;;;;;;;12.63;11.00;;;;;;;16.69;63.74;99939.84;5072136;28;20200;-67
2022/10/20 05:27:58;;;;;;;17.40;11.47;;;;;;;16.89;63.26;99953.84;5071371;28;20191;-67
2022/10/20 05:30:25;;;;;;;12.80;10.93;;;;;;;17.04;62.24;99957.78;5051998;28;20570;-67
2022/10/20 05:32:51;;;;;;;14.53;11.37;;;;;;;17.14;61.85;99957.22;5052475;28;20570;-68
2022/10/20 05:35:18;;;;;;;17.10;11.23;;;;;;;17.40;61.07;99956.88;5071807;28;20733;-67
2022/10/20 05:37:46;;;;;;;14.10;10.70;;;;;;;17.52;60.41;99960.47;5071966;28;20196;-67
2022/10/20 05:40:13;;;;;;;16.07;11.33;;;;;;;17.60;60.18;99968.19;5071568;28;20721;-67
2022/10/20 05:42:40;;;;;;;24.40;11.70;;;;;;;17.64;60.24;99966.69;5072066;28;20627;-67
2022/10/20 05:45:08;;;;;;;12.33;11.13;;;;;;;17.71;59.81;99980.81;5076204;28;20192;-67
2022/10/20 05:47:35;;;;;;;14.23;10.10;;;;;;;17.83;59.44;99989.72;5076033;28;20196;-67
2022/10/20 05:50:01;;;;;;;23.27;11.23;;;;;;;17.95;59.18;99990.56;5075694;28;20626;-68
2022/10/20 05:52:28;;;;;;;16.47;10.80;;;;;;;18.05;58.62;99988.16;5075826;28;20188;-67
2022/10/20 05:54:58;;;;;;;17.80;11.10;;;;;;;18.10;58.51;99990.94;5075998;28;20256;-68
2022/10/20 05:57:25;;;;;;;10.43;9.47;;;;;;;18.13;58.75;99987.81;5072764;28;20196;-72
2022/10/20 05:59:51;;;;;;;12.87;9.37;;;;;;;18.29;58.88;99996.00;5075322;28;20215;-73
2022/10/20 06:02:18;;;;;;;16.97;10.30;;;;;;;18.44;57.34;100003.63;5075856;28;20192;-70
2022/10/20 06:04:45;;;;;;;12.47;10.17;;;;;;;18.63;56.96;100008.63;5075359;28;20199;-70
2022/10/20 06:07:11;;;;;;;10.80;9.67;;;;;;;18.63;57.35;100013.22;5075940;28;20242;-69
2022/10/20 06:09:39;;;;;;;12.10;9.80;;;;;;;18.72;56.52;100011.78;5075592;28;20241;-68
2022/10/20 06:12:08;;;;;;;26.87;10.43;;;;;;;18.84;56.10;100020.69;5075721;28;20229;-67
2022/10/20 06:14:34;;;;;;;17.23;10.03;;;;;;;18.65;55.85;100022.69;5075189;28;20197;-67
2022/10/20 06:17:01;;;;;;;12.70;9.33;;;;;;;18.77;55.74;100026.19;5070164;28;20218;-66
2022/10/20 06:19:28;;;;;;;26.33;10.13;;;;;;;18.78;55.82;100029.72;5055259;28;20194;-67
2022/10/20 06:21:54;;;;;;;11.10;9.17;;;;;;;18.89;55.59;100023.47;5055268;28;20282;-68
2022/10/20 06:24:21;;;;;;;10.77;9.23;;;;;;;19.02;54.98;100036.66;5054607;28;20663;-67
2022/10/20 06:26:48;;;;;;;14.43;8.60;;;;;;;19.19;54.63;100034.91;5059215;28;20672;-67
2022/10/20 06:29:18;;;;;;;15.00;9.07;;;;;;;19.31;53.84;100035.69;5065808;28;20230;-68
2022/10/20 06:31:46;;;;;;;14.60;8.77;;;;;;;19.44;52.80;100048.91;5074914;28;20670;-67
2022/10/20 06:34:15;;;;;;;15.63;9.30;;;;;;;19.70;52.52;100056.41;5063954;28;20198;-72
2022/10/20 06:36:42;;;;;;;15.57;9.30;;;;;;;19.78;51.79;100047.94;5060875;28;20187;-71
2022/10/20 06:39:12;;;;;;;19.47;9.60;;;;;;;19.87;51.25;100055.41;5064788;28;20248;-70
2022/10/20 06:41:38;;;;;;;38.27;9.80;;;;;;;19.64;51.23;100049.31;5062819;28;20269;-72
2022/10/20 06:44:06;;;;;;;28.67;9.07;;;;;;;19.56;52.12;100057.78;5065500;28;20188;-70
2022/10/20 06:46:35;;;;;;;54.40;10.07;;;;;;;19.71;51.23;100055.34;5064134;28;20192;-71
2022/10/20 06:49:03;;;;;;;10.10;7.77;;;;;;;19.60;51.36;100053.53;5062907;28;20606;-71
2022/10/20 06:51:30;;;;;;;10.63;8.07;;;;;;;19.62;51.23;100062.19;5064940;28;20220;-72
2022/10/20 06:53:57;;;;;;;15.33;8.93;;;;;;;19.97;51.05;100057.47;5064510;28;20200;-71
2022/10/20 06:56:26;;;;;;;9.40;7.80;;;;;;;20.22;48.73;100068.72;5062350;28;20196;-70
2022/10/20 06:58:55;;;;;;;10.53;8.60;;;;;;;20.22;48.82;100063.31;5064092;28;20659;-70
2022/10/20 07:01:24;;;;;;;8.40;7.17;;;;;;;20.29;48.78;100069.34;5064906;28;20224;-70
2022/10/20 07:03:55;;;;;;;13.17;7.97;;;;;;;20.39;48.16;100070.34;5063557;28;20251;-71
2022/10/20 07:06:26;;;;;;;15.50;7.73;;;;;;;20.43;47.99;100065.28;5065091;28;20184;-68
2022/10/20 07:08:55;;;;;;;9.83;7.43;;;;;;;20.34;47.79;100066.78;5068624;28;20184;-71
2022/10/20 07:11:23;;;;;;;18.17;6.83;;;;;;;20.64;51.09;100056.44;5062067;28;20256;-68
2022/10/20 07:13:51;;;;;;;11.63;7.67;;;;;;;20.79;46.59;100070.16;5059442;28;20227;-69
2022/10/20 07:16:19;;;;;;;26.67;8.13;;;;;;;20.89;46.19;100070.31;5064435;28;20254;-69
2022/10/20 07:18:46;;;;;;;11.57;6.97;;;;;;;20.66;46.53;100065.09;5064789;28;20251;-69
2022/10/20 07:21:16;;;;;;;109.43;12.00;;;;;;;20.55;46.44;100063.31;5064158;28;20220;-68
2022/10/20 07:23:43;;;;;;;11.03;7.47;;;;;;;20.74;46.37;100072.78;5049124;28;20261;-70
2022/10/20 07:26:12;;;;;;;19.90;7.30;;;;;;;21.08;45.72;100068.16;5046095;28;20274;-70
2022/10/20 07:28:41;;;;;;;23.70;8.53;;;;;;;21.16;45.21;100070.44;5064996;28;20192;-69
2022/10/20 07:31:10;;;;;;;11.07;7.67;;;;;;;21.07;45.26;100064.63;5053732;28;20200;-71
2022/10/20 07:33:37;;;;;;;14.57;7.50;;;;;;;21.11;45.08;100068.47;5060363;28;20246;-73
2022/10/20 07:36:11;;;;;;;8.23;6.57;;;;;;;21.47;43.98;100075.97;5073586;28;20659;-76
2022/10/20 07:38:39;;;;;;;7.57;6.83;;;;;;;21.39;43.87;100071.00;5073657;28;20264;-76
2022/10/20 07:41:06;;;;;;;11.67;7.50;;;;;;;21.29;43.83;100070.88;5073718;28;20219;-74
2022/10/20 07:43:32;;;;;;;7.70;6.90;;;;;;;21.78;43.43;100080.69;5073227;28;20252;-73
2022/10/20 07:45:59;;;;;;;10.17;7.10;;;;;;;21.62;42.47;100081.56;5053656;28;20200;-73
2022/10/20 07:48:26;;;;;;;14.13;8.07;;;;;;;21.32;43.69;100078.50;5053155;28;20192;-77
2022/10/20 07:50:53;;;;;;;11.13;6.97;;;;;;;21.82;43.39;100070.16;5053332;28;20199;-75
2022/10/20 07:53:19;;;;;;;13.33;7.17;;;;;;;22.29;41.13;100082.81;5053234;28;20700;-73
2022/10/20 07:55:47;;;;;;;19.07;7.33;;;;;;;22.53;40.41;100075.16;5053197;28;20200;-75
2022/10/20 07:58:14;;;;;;;8.97;6.57;;;;;;;22.48;40.76;100081.38;5053209;28;20201;-72
2022/10/20 08:00:41;;;;;;;9.50;7.07;;;;;;;22.61;40.57;100083.63;5053092;28;20220;-74
2022/10/20 08:03:09;;;;;;;13.67;6.90;;;;;;;22.92;40.18;100082.78;5053105;28;20197;-76
2022/10/20 08:05:35;;;;;;;6.93;6.27;;;;;;;22.96;39.82;100081.19;5053011;28;20274;-74
2022/10/20 08:08:02;;;;;;;15.43;6.60;;;;;;;22.61;39.76;100086.34;5053397;28;20192;-75
2022/10/20 08:10:29;;;;;;;10.90;5.90;;;;;;;22.86;40.37;100089.22;5053146;28;20193;-75
2022/10/20 08:12:57;;;;;;;12.17;6.13;;;;;;;22.91;38.45;100097.38;5053026;28;20241;-74
2022/10/20 08:15:26;;;;;;;6.80;6.13;;;;;;;22.58;38.96;100080.66;5053159;28;20247;-76
2022/10/20 08:17:53;;;;;;;7.57;6.20;;;;;;;22.37;39.46;100079.63;5058615;28;20195;-78
2022/10/20 08:20:20;;;;;;;6.67;5.83;;;;;;;22.45;39.07;100091.84;5070743;28;20223;-75
2022/10/20 08:22:47;;;;;;;7.03;5.83;;;;;;;22.33;39.21;100078.50;5072512;28;20720;-78
2022/10/20 08:25:15;;;;;;;15.17;6.07;;;;;;;22.69;38.50;100080.44;5069173;28;20214;-80
2022/10/20 08:27:41;;;;;;;5.87;5.47;;;;;;;23.06;38.05;100073.09;5065182;28;20196;-68
2022/10/20 08:30:10;;;;;;;7.63;5.90;;;;;;;22.98;37.85;100070.06;5060872;28;20729;-66
2022/10/20 08:32:37;;;;;;;8.60;5.37;;;;;;;23.16;37.62;100073.13;5072622;28;20200;-67
2022/10/20 08:35:04;;;;;;;12.83;6.33;;;;;;;23.20;37.21;100070.75;5072312;28;20188;-67
2022/10/20 08:37:31;;;;;;;9.23;5.90;;;;;;;23.05;37.39;100082.31;5072758;28;20250;-68
2022/10/20 08:39:58;;;;;;;7.33;5.57;;;;;;;22.78;37.07;100070.75;5072316;28;20249;-68
2022/10/20 08:42:25;;;;;;;12.87;5.80;;;;;;;22.54;38.38;100074.91;5072774;28;20293;-68
2022/10/20 08:44:58;;;;;;;7.23;5.40;;;;;;;22.81;38.05;100067.53;5071838;28;20340;-68
2022/10/20 08:47:30;;;;;;;6.03;5.30;;;;;;;23.00;37.66;100057.91;5072842;28;20192;-68
2022/10/20 08:49:57;;;;;;;10.17;6.03;;;;;;;22.92;37.45;100054.88;5072993;28;20253;-68
2022/10/20 08:52:26;;;;;;;8.13;5.30;;;;;;;22.96;36.88;100070.34;5072440;28;20201;-68
2022/10/20 08:54:55;;;;;;;10.10;5.87;;;;;;;23.05;36.90;100068.75;5071945;28;20196;-67
2022/10/20 08:57:25;;;;;;;9.00;6.03;;;;;;;23.14;36.74;100075.31;5072018;28;20196;-69
2022/10/20 08:59:55;;;;;;;11.10;5.20;;;;;;;23.32;36.98;100077.59;5072847;28;20180;-67
2022/10/20 09:02:22;;;;;;;9.97;5.30;;;;;;;23.24;36.37;100067.25;5072295;28;20227;-70
2022/10/20 09:04:54;;;;;;;8.23;5.10;;;;;;;23.42;35.98;100072.22;5072165;28;20553;-68
2022/10/20 09:07:27;;;;;;;10.93;6.00;;;;;;;23.47;36.31;100074.13;5072545;28;20188;-67
2022/10/20 09:10:01;;;;;;;7.00;5.80;;;;;;;23.43;36.31;100073.84;5072421;28;20185;-68
2022/10/20 09:12:28;;;;;;;8.70;4.90;;;;;;;23.55;35.78;100071.72;5059311;28;20245;-67
2022/10/20 09:14:56;;;;;;;30.50;5.83;;;;;;;23.26;35.90;100065.09;5059868;28;20248;-66
2022/10/20 09:17:23;;;;;;;5.30;4.87;;;;;;;23.05;36.12;100057.09;5060958;28;20192;-67
2022/10/20 09:19:55;;;;;;;7.40;5.10;;;;;;;23.10;36.35;100068.78;5061195;28;20542;-66
2022/10/20 09:22:24;;;;;;;10.97;5.43;;;;;;;22.96;36.32;100061.38;5059980;28;20295;-67
2022/10/20 09:24:55;;;;;;;8.47;5.00;;;;;;;23.21;36.50;100065.09;5062408;28;20729;-67
2022/10/20 09:27:24;;;;;;;21.83;6.23;;;;;;;23.38;35.85;100057.56;5060979;28;20235;-67
2022/10/20 09:29:51;;;;;;;5.37;4.97;;;;;;;23.52;35.37;100061.41;5062403;28;20250;-67
2022/10/20 09:32:21;;;;;;;9.37;5.17;;;;;;;23.44;35.50;100053.78;5061356;28;20196;-66
2022/10/20 09:34:48;;;;;;;8.17;5.20;;;;;;;23.32;35.09;100061.31;5062127;28;20710;-66
2022/10/20 09:37:19;;;;;;;11.70;5.37;;;;;;;23.42;34.80;100058.66;5060301;28;20257;-67
2022/10/20 09:39:52;;;;;;;5.93;4.67;;;;;;;23.38;35.01;100060.28;5061344;28;20180;-66
2022/10/20 09:42:23;;;;;;;6.40;4.50;;;;;;;23.46;34.87;100057.06;5063044;28;20287;-66
2022/10/20 09:44:54;;;;;;;9.23;4.40;;;;;;;23.32;34.88;100055.91;5072079;28;20288;-68
2022/10/20 09:47:23;;;;;;;5.63;4.67;;;;;;;23.41;34.68;100058.94;5054193;28;20278;-67
2022/10/20 09:49:55;;;;;;;7.10;5.20;;;;;;;23.63;34.85;100037.81;5050336;28;20194;-66
2022/10/20 09:52:26;;;;;;;5.50;4.07;;;;;;;23.65;33.54;100058.19;5049546;28;20290;-67
2022/10/20 09:54:59;;;;;;;4.93;4.37;;;;;;;23.64;33.45;100053.84;5049907;28;20181;-66
2022/10/20 09:57:26;;;;;;;5.00;4.50;;;;;;;23.84;33.67;100043.03;5049128;28;20555;-67
2022/10/20 09:59:54;;;;;;;5.10;4.50;;;;;;;24.20;33.12;100052.06;5049416;28;20193;-67
2022/10/20 10:02:30;;;;;;;5.00;4.10;;;;;;;24.16;33.73;100049.09;5050843;28;20660;-67
2022/10/20 10:05:14;;;;;;;5.67;4.30;;;;;;;24.18;32.99;100037.97;5052078;28;20561;-68
2022/10/20 10:07:42;;;;;;;7.63;4.60;;;;;;;24.01;32.84;100049.06;5051293;28;20715;-67
2022/10/20 10:10:24;;;;;;;6.43;4.07;;;;;;;23.84;32.56;100055.78;5051662;28;20195;-68
2022/10/20 10:12:52;;;;;;;9.60;4.73;;;;;;;23.82;32.37;100053.38;5051297;28;20222;-67
2022/10/20 10:15:28;;;;;;;7.43;4.40;;;;;;;24.00;31.98;100052.03;5050879;28;20195;-63
2022/10/20 10:17:55;;;;;;;7.50;4.43;;;;;;;23.74;32.50;100051.16;5051534;28;20195;-63
2022/10/20 10:20:34;;;;;;;21.33;5.83;;;;;;;23.91;32.89;100054.50;5054799;28;20249;-63
2022/10/20 10:23:19;;;;;;;4.70;4.40;;;;;;;23.57;32.18;100047.84;5051147;28;20209;-63
2022/10/20 10:25:45;;;;;;;6.13;4.40;;;;;;;23.71;32.45;100043.56;5053940;28;20566;-63
2022/10/20 10:28:27;;;;;;;8.33;4.20;;;;;;;23.72;32.28;100033.50;5055215;28;20666;-63
2022/10/20 10:31:09;;;;;;;14.40;4.40;;;;;;;23.57;32.33;100026.13;5073283;28;20202;-63
2022/10/20 10:33:36;;;;;;;5.33;3.97;;;;;;;23.49;31.74;100034.78;5075227;28;20197;-63
2022/10/20 10:36:07;;;;;;;4.43;4.03;;;;;;;23.41;31.49;100029.91;5074543;28;20653;-63
2022/10/20 10:38:36;;;;;;;4.77;4.27;;;;;;;23.57;31.87;100026.13;5074735;28;20196;-63
2022/10/20 10:41:12;;;;;;;3.90;3.53;;;;;;;23.61;31.67;100021.81;5074547;28;20269;-63
2022/10/20 10:43:46;;;;;;;20.50;5.60;;;;;;;23.72;31.26;100026.19;5074716;28;20191;-64
2022/10/20 10:46:19;;;;;;;21.20;4.37;;;;;;;23.65;31.24;100014.78;5074731;28;20197;-63
2022/10/20 10:49:10;;;;;;;15.20;5.07;;;;;;;23.53;32.07;100021.53;5074685;28;20239;-64
2022/10/20 10:51:50;;;;;;;8.70;4.03;;;;;;;23.65;32.55;100027.53;5074478;28;20247;-64
2022/10/20 10:54:30;;;;;;;7.97;3.93;;;;;;;23.55;31.65;100011.22;5074157;28;20201;-63
2022/10/20 10:57:02;;;;;;;11.10;4.70;;;;;;;23.49;32.10;100012.31;5074368;28;20770;-63
2022/10/20 10:59:32;;;;;;;14.33;4.77;;;;;;;23.65;31.30;100012.06;5074352;28;20186;-63
2022/10/20 11:02:23;;;;;;;4.40;3.80;;;;;;;23.57;31.20;100014.50;5074215;28;20772;-63
2022/10/20 11:05:21;;;;;;;5.17;4.00;;;;;;;23.61;31.21;100004.75;5074307;28;20668;-64
2022/10/20 11:07:56;;;;;;;58.80;8.40;;;;;;;23.45;31.53;100006.63;5074507;28;20184;-63
2022/10/20 11:10:34;;;;;;;8.10;4.00;;;;;;;23.69;30.65;99996.88;5074127;28;20702;-64
2022/10/20 11:13:12;;;;;;;7.33;3.50;;;;;;;23.56;30.94;99991.97;5055921;28;20673;-63
2022/10/20 11:15:50;;;;;;;4.77;4.27;;;;;;;23.54;31.29;100002.28;5053178;28;20232;-64
2022/10/20 11:18:32;;;;;;;7.07;3.83;;;;;;;23.49;31.33;99996.81;5052479;28;20181;-64
2022/10/20 11:21:09;;;;;;;15.27;4.77;;;;;;;23.59;31.55;99991.44;5055799;28;20247;-64
2022/10/20 11:23:57;;;;;;;4.50;4.10;;;;;;;23.56;31.72;99991.19;5073661;28;20189;-64
2022/10/20 11:26:28;;;;;;;12.80;4.97;;;;;;;23.83;31.75;99987.13;5061247;28;20244;-64
2022/10/20 11:28:57;;;;;;;5.37;3.93;;;;;;;23.94;31.00;99977.94;5062087;28;20187;-63
2022/10/20 11:31:29;;;;;;;11.33;4.07;;;;;;;23.77;31.21;99982.78;5073958;28;20271;-64